createdAt,value
2023-03-31T00:00:14.882Z,994.52
2023-03-31T00:01:14.907Z,994.51
2023-03-31T00:02:14.846Z,994.51
2023-03-31T00:03:15.912Z,994.44
2023-03-31T00:04:16.064Z,994.49
2023-03-31T00:05:15.901Z,994.47
2023-03-31T00:06:14.797Z,994.47
2023-03-31T00:07:14.845Z,994.50
2023-03-31T00:08:15.535Z,994.50
2023-03-31T00:09:14.788Z,994.51
2023-03-31T00:10:17.962Z,994.45
2023-03-31T00:11:14.740Z,994.42
2023-03-31T00:12:14.769Z,994.47
2023-03-31T00:13:14.746Z,994.36
2023-03-31T00:14:14.756Z,994.45
2023-03-31T00:15:14.729Z,994.40
2023-03-31T00:16:14.765Z,994.45
2023-03-31T00:17:15.739Z,994.43
2023-03-31T00:18:14.679Z,994.44
2023-03-31T00:19:14.662Z,994.42
2023-03-31T00:20:15.673Z,994.38
2023-03-31T00:21:14.892Z,994.37
2023-03-31T00:22:14.656Z,994.35
2023-03-31T00:23:14.666Z,994.36
2023-03-31T00:24:14.633Z,994.30
2023-03-31T00:25:14.631Z,994.34
2023-03-31T00:26:15.630Z,994.37
2023-03-31T00:27:14.593Z,994.33
2023-03-31T00:28:14.563Z,994.29
2023-03-31T00:29:14.600Z,994.21
2023-03-31T00:30:14.565Z,994.22
2023-03-31T00:31:14.528Z,994.23
2023-03-31T00:32:14.574Z,994.17
2023-03-31T00:33:14.516Z,994.20
2023-03-31T00:34:14.510Z,994.14
2023-03-31T00:35:14.529Z,994.15
2023-03-31T00:36:14.528Z,994.13
2023-03-31T00:37:14.454Z,994.20
2023-03-31T00:38:15.465Z,994.11
2023-03-31T00:39:14.445Z,994.08
2023-03-31T00:40:14.426Z,994.12
2023-03-31T00:41:15.456Z,994.12
2023-03-31T00:42:14.422Z,994.13
2023-03-31T00:43:14.447Z,994.16
2023-03-31T00:44:14.401Z,994.06
2023-03-31T00:45:14.405Z,994.10
2023-03-31T00:46:14.449Z,994.05
2023-03-31T00:47:14.360Z,994.04
2023-03-31T00:48:14.413Z,994.03
2023-03-31T00:49:14.356Z,994.00
2023-03-31T00:50:14.321Z,993.96
2023-03-31T00:51:15.310Z,994.00
2023-03-31T00:52:14.311Z,993.99
2023-03-31T00:53:15.311Z,993.98
2023-03-31T00:54:15.302Z,994.00
2023-03-31T00:55:14.282Z,993.99
2023-03-31T00:56:14.262Z,993.98
2023-03-31T00:57:14.338Z,993.95
2023-03-31T00:58:14.284Z,993.91
2023-03-31T00:59:14.229Z,993.89
2023-03-31T01:00:15.208Z,993.91
2023-03-31T01:01:14.247Z,993.84
2023-03-31T01:02:14.185Z,993.87
2023-03-31T01:03:14.290Z,993.84
2023-03-31T01:04:15.172Z,993.82
2023-03-31T01:05:14.176Z,993.85
2023-03-31T01:06:14.140Z,993.76
2023-03-31T01:07:14.124Z,993.79
2023-03-31T01:08:14.146Z,993.73
2023-03-31T01:09:15.122Z,993.75
2023-03-31T01:10:14.136Z,993.72
2023-03-31T01:11:14.110Z,993.71
2023-03-31T01:12:14.118Z,993.67
2023-03-31T01:13:14.077Z,993.67
2023-03-31T01:14:15.116Z,993.62
2023-03-31T01:15:15.054Z,993.58
2023-03-31T01:16:14.033Z,993.59
2023-03-31T01:17:14.158Z,993.54
2023-03-31T01:18:14.083Z,993.52
2023-03-31T01:19:13.991Z,993.50
2023-03-31T01:20:14.026Z,993.52
2023-03-31T01:21:13.995Z,993.46
2023-03-31T01:22:13.993Z,993.44
2023-03-31T01:23:13.975Z,993.39
2023-03-31T01:24:13.977Z,993.39
2023-03-31T01:25:13.937Z,993.37
2023-03-31T01:26:13.937Z,993.34
2023-03-31T01:27:13.921Z,993.33
2023-03-31T01:28:13.906Z,993.28
2023-03-31T01:29:13.889Z,993.32
2023-03-31T01:30:14.450Z,993.33
2023-03-31T01:31:13.923Z,993.34
2023-03-31T01:32:13.865Z,993.33
2023-03-31T01:33:13.920Z,993.27
2023-03-31T01:34:13.836Z,993.29
2023-03-31T01:35:14.818Z,993.26
2023-03-31T01:36:13.828Z,993.27
2023-03-31T01:37:13.856Z,993.20
2023-03-31T01:38:13.797Z,993.20
2023-03-31T01:39:13.794Z,993.15
2023-03-31T01:40:13.769Z,993.19
2023-03-31T01:41:13.743Z,993.14
2023-03-31T01:42:13.797Z,993.08
2023-03-31T01:43:13.734Z,993.09
2023-03-31T01:44:13.728Z,993.09
2023-03-31T01:45:13.748Z,993.10
2023-03-31T01:46:13.736Z,993.16
2023-03-31T01:47:13.733Z,993.17
2023-03-31T01:48:13.686Z,993.16
2023-03-31T01:49:13.696Z,993.17
2023-03-31T01:50:13.667Z,993.17
2023-03-31T01:51:13.675Z,993.19
2023-03-31T01:52:13.691Z,993.19
2023-03-31T01:53:13.644Z,993.16
2023-03-31T01:54:13.620Z,993.14
2023-03-31T01:55:13.601Z,993.12
2023-03-31T01:56:13.588Z,993.12
2023-03-31T01:57:13.610Z,993.11
2023-03-31T01:58:14.448Z,993.10
2023-03-31T01:59:13.560Z,993.08
2023-03-31T02:00:13.541Z,993.03
2023-03-31T02:01:13.552Z,992.98
2023-03-31T02:02:13.658Z,993.01
2023-03-31T02:03:13.604Z,992.93
2023-03-31T02:04:13.571Z,992.99
2023-03-31T02:05:13.496Z,992.94
2023-03-31T02:06:13.501Z,992.91
2023-03-31T02:07:13.476Z,992.94
2023-03-31T02:08:13.463Z,992.89
2023-03-31T02:09:13.460Z,992.90
2023-03-31T02:10:13.467Z,992.94
2023-03-31T02:11:13.481Z,992.92
2023-03-31T02:12:14.435Z,992.87
2023-03-31T02:13:13.402Z,992.89
2023-03-31T02:14:13.419Z,992.85
2023-03-31T02:15:13.388Z,992.82
2023-03-31T02:16:13.412Z,992.82
2023-03-31T02:17:13.384Z,992.79
2023-03-31T02:18:14.361Z,992.81
2023-03-31T02:19:13.345Z,992.78
2023-03-31T02:20:13.335Z,992.87
2023-03-31T02:21:13.353Z,992.84
2023-03-31T02:22:13.309Z,992.81
2023-03-31T02:23:13.316Z,992.83
2023-03-31T02:24:14.298Z,992.80
2023-03-31T02:25:13.293Z,992.72
2023-03-31T02:26:13.294Z,992.75
2023-03-31T02:27:13.241Z,992.76
2023-03-31T02:28:13.235Z,992.67
2023-03-31T02:29:13.253Z,992.69
2023-03-31T02:30:13.220Z,992.65
2023-03-31T02:31:13.249Z,992.64
2023-03-31T02:32:13.218Z,992.64
2023-03-31T02:33:13.172Z,992.62
2023-03-31T02:34:13.163Z,992.62
2023-03-31T02:35:13.162Z,992.58
2023-03-31T02:36:13.183Z,992.58
2023-03-31T02:37:13.159Z,992.50
2023-03-31T02:38:13.134Z,992.54
2023-03-31T02:39:13.122Z,992.48
2023-03-31T02:40:14.104Z,992.42
2023-03-31T02:41:13.104Z,992.50
2023-03-31T02:42:13.103Z,992.44
2023-03-31T02:43:13.110Z,992.53
2023-03-31T02:44:13.109Z,992.44
2023-03-31T02:45:13.052Z,992.45
2023-03-31T02:46:14.127Z,992.45
2023-03-31T02:47:13.024Z,992.39
2023-03-31T02:48:13.025Z,992.34
2023-03-31T02:49:13.027Z,992.32
2023-03-31T02:50:13.006Z,992.24
2023-03-31T02:51:12.969Z,992.29
2023-03-31T02:52:14.015Z,992.20
2023-03-31T02:53:12.964Z,992.22
2023-03-31T02:54:12.956Z,992.19
2023-03-31T02:55:12.960Z,992.22
2023-03-31T02:56:12.962Z,992.17
2023-03-31T02:57:13.026Z,992.13
2023-03-31T02:58:12.920Z,992.12
2023-03-31T02:59:12.929Z,992.11
2023-03-31T03:00:12.943Z,992.13
2023-03-31T03:01:12.938Z,992.15
2023-03-31T03:02:12.893Z,992.15
2023-03-31T03:03:13.947Z,992.06
2023-03-31T03:04:12.884Z,992.07
2023-03-31T03:05:12.829Z,992.10
2023-03-31T03:06:12.837Z,992.15
2023-03-31T03:07:12.805Z,992.11
2023-03-31T03:08:12.844Z,992.09
2023-03-31T03:09:12.852Z,992.07
2023-03-31T03:10:12.778Z,992.08
2023-03-31T03:11:12.788Z,992.00
2023-03-31T03:12:12.765Z,991.99
2023-03-31T03:13:12.764Z,991.97
2023-03-31T03:14:12.725Z,991.99
2023-03-31T03:15:12.789Z,991.95
2023-03-31T03:16:13.816Z,991.95
2023-03-31T03:17:12.702Z,991.88
2023-03-31T03:18:12.748Z,991.91
2023-03-31T03:19:13.671Z,991.92
2023-03-31T03:20:13.668Z,991.91
2023-03-31T03:21:13.683Z,991.90
2023-03-31T03:22:12.658Z,991.92
2023-03-31T03:23:12.642Z,991.87
2023-03-31T03:24:12.653Z,991.83
2023-03-31T03:25:12.607Z,991.85
2023-03-31T03:26:12.602Z,991.81
2023-03-31T03:27:12.608Z,991.82
2023-03-31T03:28:12.601Z,991.78
2023-03-31T03:29:12.598Z,991.81
2023-03-31T03:30:12.603Z,991.77
2023-03-31T03:31:12.580Z,991.73
2023-03-31T03:32:12.523Z,991.75
2023-03-31T03:33:13.912Z,991.68
2023-03-31T03:34:12.513Z,991.72
2023-03-31T03:35:12.524Z,991.75
2023-03-31T03:36:12.533Z,991.76
2023-03-31T03:37:13.503Z,991.75
2023-03-31T03:38:13.479Z,991.73
2023-03-31T03:39:12.511Z,991.73
2023-03-31T03:40:12.455Z,991.64
2023-03-31T03:41:12.443Z,991.67
2023-03-31T03:42:12.441Z,991.56
2023-03-31T03:43:12.405Z,991.61
2023-03-31T03:44:12.413Z,991.58
2023-03-31T03:45:12.463Z,991.53
2023-03-31T03:46:12.446Z,991.48
2023-03-31T03:47:12.366Z,991.54
2023-03-31T03:48:13.366Z,991.49
2023-03-31T03:49:13.347Z,991.49
2023-03-31T03:50:13.985Z,991.49
2023-03-31T03:51:12.366Z,991.51
2023-03-31T03:52:12.327Z,991.44
2023-03-31T03:53:12.344Z,991.50
2023-03-31T03:54:12.331Z,991.47
2023-03-31T03:55:13.277Z,991.45
2023-03-31T03:56:13.312Z,991.48
2023-03-31T03:57:13.319Z,991.42
2023-03-31T03:58:13.281Z,991.41
2023-03-31T03:59:12.234Z,991.38
2023-03-31T04:00:12.328Z,991.40
2023-03-31T04:01:12.237Z,991.39
2023-03-31T04:02:12.229Z,991.42
2023-03-31T04:03:12.246Z,991.35
2023-03-31T04:04:12.199Z,991.34
2023-03-31T04:05:12.177Z,991.31
2023-03-31T04:06:12.171Z,991.32
2023-03-31T04:07:12.150Z,991.31
2023-03-31T04:08:12.135Z,991.28
2023-03-31T04:09:12.166Z,991.26
2023-03-31T04:10:12.140Z,991.27
2023-03-31T04:11:12.104Z,991.23
2023-03-31T04:12:12.107Z,991.20
2023-03-31T04:13:12.086Z,991.23
2023-03-31T04:14:13.086Z,991.19
2023-03-31T04:15:12.060Z,991.17
2023-03-31T04:16:13.097Z,991.19
2023-03-31T04:17:12.089Z,991.10
2023-03-31T04:18:13.927Z,991.05
2023-03-31T04:19:13.018Z,991.08
2023-03-31T04:20:12.013Z,991.03
2023-03-31T04:21:13.044Z,991.07
2023-03-31T04:22:13.014Z,991.06
2023-03-31T04:23:12.003Z,991.07
2023-03-31T04:24:11.953Z,991.05
2023-03-31T04:25:11.972Z,991.08
2023-03-31T04:26:11.937Z,991.01
2023-03-31T04:27:11.944Z,991.01
2023-03-31T04:28:11.915Z,991.04
2023-03-31T04:29:11.944Z,991.08
2023-03-31T04:30:11.894Z,991.02
2023-03-31T04:31:11.913Z,990.87
2023-03-31T04:32:11.935Z,990.90
2023-03-31T04:33:11.898Z,990.94
2023-03-31T04:34:11.896Z,990.89
2023-03-31T04:35:12.858Z,990.88
2023-03-31T04:36:11.843Z,990.90
2023-03-31T04:37:11.841Z,990.88
2023-03-31T04:38:11.802Z,990.80
2023-03-31T04:39:11.799Z,990.81
2023-03-31T04:40:11.821Z,990.77
2023-03-31T04:41:11.833Z,990.76
2023-03-31T04:42:11.780Z,990.74
2023-03-31T04:43:12.768Z,990.71
2023-03-31T04:44:11.755Z,990.69
2023-03-31T04:45:11.739Z,990.62
2023-03-31T04:46:11.760Z,990.58
2023-03-31T04:47:11.704Z,990.61
2023-03-31T04:48:12.689Z,990.48
2023-03-31T04:49:11.717Z,990.52
2023-03-31T04:50:15.356Z,990.48
2023-03-31T04:51:13.356Z,990.47
2023-03-31T04:52:12.684Z,990.47
2023-03-31T04:53:11.658Z,990.42
2023-03-31T04:54:11.620Z,990.40
2023-03-31T04:55:11.644Z,990.42
2023-03-31T04:56:11.616Z,990.40
2023-03-31T04:57:12.634Z,990.39
2023-03-31T04:58:12.615Z,990.35
2023-03-31T04:59:12.613Z,990.28
2023-03-31T05:00:11.579Z,990.25
2023-03-31T05:01:11.571Z,990.24
2023-03-31T05:02:11.557Z,990.23
2023-03-31T05:03:12.659Z,990.29
2023-03-31T05:04:11.533Z,990.21
2023-03-31T05:05:11.537Z,990.26
2023-03-31T05:06:11.497Z,990.20
2023-03-31T05:07:11.494Z,990.16
2023-03-31T05:08:11.515Z,990.18
2023-03-31T05:09:12.391Z,990.14
2023-03-31T05:10:11.442Z,990.09
2023-03-31T05:11:12.447Z,990.07
2023-03-31T05:12:11.421Z,989.99
2023-03-31T05:13:12.404Z,990.02
2023-03-31T05:14:12.460Z,989.97
2023-03-31T05:15:11.428Z,989.97
2023-03-31T05:16:12.475Z,990.00
2023-03-31T05:17:11.386Z,989.93
2023-03-31T05:18:12.379Z,989.97
2023-03-31T05:19:11.353Z,989.88
2023-03-31T05:20:11.371Z,989.95
2023-03-31T05:21:12.408Z,989.91
2023-03-31T05:22:11.317Z,989.87
2023-03-31T05:23:11.313Z,989.82
2023-03-31T05:24:11.317Z,989.83
2023-03-31T05:25:11.309Z,989.73
2023-03-31T05:26:12.325Z,989.80
2023-03-31T05:27:11.317Z,989.77
2023-03-31T05:28:11.270Z,989.78
2023-03-31T05:29:11.255Z,989.75
2023-03-31T05:30:11.245Z,989.71
2023-03-31T05:31:11.267Z,989.67
2023-03-31T05:32:12.283Z,989.63
2023-03-31T05:33:11.262Z,989.61
2023-03-31T05:34:11.203Z,989.62
2023-03-31T05:35:11.181Z,989.52
2023-03-31T05:36:11.187Z,989.61
2023-03-31T05:37:11.190Z,989.56
2023-03-31T05:38:11.240Z,989.49
2023-03-31T05:39:11.144Z,989.46
2023-03-31T05:40:11.136Z,989.50
2023-03-31T05:41:11.182Z,989.53
2023-03-31T05:42:11.116Z,989.46
2023-03-31T05:43:11.129Z,989.43
2023-03-31T05:44:11.116Z,989.49
2023-03-31T05:45:11.113Z,989.44
2023-03-31T05:46:11.504Z,989.45
2023-03-31T05:47:11.057Z,989.50
2023-03-31T05:48:12.166Z,989.46
2023-03-31T05:49:11.089Z,989.52
2023-03-31T05:50:14.106Z,989.47
2023-03-31T05:51:11.089Z,989.37
2023-03-31T05:52:12.016Z,989.37
2023-03-31T05:53:11.049Z,989.35
2023-03-31T05:54:11.005Z,989.35
2023-03-31T05:55:10.993Z,989.32
2023-03-31T05:56:10.961Z,989.30
2023-03-31T05:57:11.038Z,989.34
2023-03-31T05:58:10.952Z,989.31
2023-03-31T05:59:11.946Z,989.35
2023-03-31T06:00:10.966Z,989.33
2023-03-31T06:01:11.492Z,989.30
2023-03-31T06:02:10.898Z,989.30
2023-03-31T06:03:10.938Z,989.33
2023-03-31T06:04:10.926Z,989.28
2023-03-31T06:05:10.889Z,989.32
2023-03-31T06:06:10.863Z,989.25
2023-03-31T06:07:10.911Z,989.24
2023-03-31T06:08:10.825Z,989.22
2023-03-31T06:09:10.843Z,989.24
2023-03-31T06:10:11.062Z,989.18
2023-03-31T06:11:10.804Z,989.20
2023-03-31T06:12:11.774Z,989.18
2023-03-31T06:13:10.814Z,989.20
2023-03-31T06:14:10.816Z,989.14
2023-03-31T06:15:10.773Z,989.15
2023-03-31T06:16:10.743Z,989.20
2023-03-31T06:17:10.726Z,989.24
2023-03-31T06:18:10.831Z,989.19
2023-03-31T06:19:10.765Z,989.12
2023-03-31T06:20:20.408Z,989.16
2023-03-31T06:21:11.733Z,989.17
2023-03-31T06:22:10.686Z,989.20
2023-03-31T06:23:10.685Z,989.18
2023-03-31T06:24:10.640Z,989.15
2023-03-31T06:25:10.670Z,989.24
2023-03-31T06:26:10.627Z,989.22
2023-03-31T06:27:10.610Z,989.20
2023-03-31T06:28:10.617Z,989.14
2023-03-31T06:29:11.667Z,989.18
2023-03-31T06:30:11.567Z,989.19
2023-03-31T06:31:10.729Z,989.12
2023-03-31T06:32:10.656Z,989.10
2023-03-31T06:33:10.586Z,989.17
2023-03-31T06:34:10.588Z,989.09
2023-03-31T06:35:10.540Z,989.07
2023-03-31T06:36:10.620Z,989.17
2023-03-31T06:37:10.508Z,989.05
2023-03-31T06:38:11.529Z,989.09
2023-03-31T06:39:10.510Z,989.17
2023-03-31T06:40:11.468Z,989.13
2023-03-31T06:41:11.472Z,989.17
2023-03-31T06:42:10.489Z,989.17
2023-03-31T06:43:11.459Z,989.15
2023-03-31T06:44:10.430Z,989.15
2023-03-31T06:45:10.438Z,989.10
2023-03-31T06:46:11.830Z,989.04
2023-03-31T06:47:10.440Z,989.08
2023-03-31T06:48:10.373Z,989.02
2023-03-31T06:49:10.420Z,989.07
2023-03-31T06:50:10.385Z,988.98
2023-03-31T06:51:10.384Z,989.00
2023-03-31T06:52:10.373Z,989.06
2023-03-31T06:53:10.355Z,989.01
2023-03-31T06:54:10.408Z,989.05
2023-03-31T06:55:10.292Z,989.00
2023-03-31T06:56:10.289Z,988.96
2023-03-31T06:57:10.376Z,988.96
2023-03-31T06:58:10.331Z,988.92
2023-03-31T06:59:10.428Z,988.84
2023-03-31T07:00:10.289Z,988.84
2023-03-31T07:01:10.453Z,988.86
2023-03-31T07:02:10.241Z,988.79
2023-03-31T07:03:10.346Z,988.76
2023-03-31T07:04:10.256Z,988.74
2023-03-31T07:05:10.593Z,988.73
2023-03-31T07:06:11.252Z,988.69
2023-03-31T07:07:10.185Z,988.65
2023-03-31T07:08:11.194Z,988.65
2023-03-31T07:09:10.222Z,988.61
2023-03-31T07:10:10.164Z,988.59
2023-03-31T07:11:10.478Z,988.56
2023-03-31T07:12:10.117Z,988.55
2023-03-31T07:13:11.128Z,988.57
2023-03-31T07:14:10.149Z,988.56
2023-03-31T07:15:10.110Z,988.57
2023-03-31T07:16:10.300Z,988.55
2023-03-31T07:17:10.091Z,988.58
2023-03-31T07:18:10.111Z,988.53
2023-03-31T07:19:10.072Z,988.45
2023-03-31T07:20:10.039Z,988.50
2023-03-31T07:21:10.519Z,988.47
2023-03-31T07:22:10.029Z,988.42
2023-03-31T07:23:09.983Z,988.46
2023-03-31T07:24:10.040Z,988.43
2023-03-31T07:25:09.974Z,988.41
2023-03-31T07:26:09.963Z,988.37
2023-03-31T07:27:10.975Z,988.41
2023-03-31T07:28:09.933Z,988.38
2023-03-31T07:29:10.014Z,988.40
2023-03-31T07:30:09.920Z,988.40
2023-03-31T07:31:10.986Z,988.35
2023-03-31T07:32:09.932Z,988.35
2023-03-31T07:33:09.934Z,988.35
2023-03-31T07:34:09.888Z,988.38
2023-03-31T07:35:09.866Z,988.34
2023-03-31T07:36:13.178Z,988.41
2023-03-31T07:37:10.849Z,988.41
2023-03-31T07:38:09.844Z,988.41
2023-03-31T07:39:09.827Z,988.46
2023-03-31T07:40:09.807Z,988.45
2023-03-31T07:41:10.220Z,988.48
2023-03-31T07:42:09.825Z,988.45
2023-03-31T07:43:10.821Z,988.45
2023-03-31T07:44:09.775Z,988.47
2023-03-31T07:45:09.754Z,988.43
2023-03-31T07:46:10.268Z,988.46
2023-03-31T07:47:09.720Z,988.47
2023-03-31T07:48:09.745Z,988.46
2023-03-31T07:49:09.715Z,988.48
2023-03-31T07:50:09.740Z,988.52
2023-03-31T07:51:09.792Z,988.43
2023-03-31T07:52:09.678Z,988.49
2023-03-31T07:53:10.670Z,988.54
2023-03-31T07:54:09.661Z,988.47
2023-03-31T07:55:09.642Z,988.49
2023-03-31T07:56:10.692Z,988.51
2023-03-31T07:57:09.644Z,988.57
2023-03-31T07:58:09.601Z,988.57
2023-03-31T07:59:09.619Z,988.55
2023-03-31T08:00:10.588Z,988.47
2023-03-31T08:01:10.587Z,988.47
2023-03-31T08:02:09.626Z,988.49
2023-03-31T08:03:10.576Z,988.51
2023-03-31T08:04:12.290Z,988.41
2023-03-31T08:05:10.524Z,988.47
2023-03-31T08:06:09.848Z,988.39
2023-03-31T08:07:09.523Z,988.44
2023-03-31T08:08:10.508Z,988.42
2023-03-31T08:09:09.680Z,988.36
2023-03-31T08:10:09.502Z,988.32
2023-03-31T08:11:09.495Z,988.37
2023-03-31T08:12:09.495Z,988.38
2023-03-31T08:13:10.270Z,988.30
2023-03-31T08:14:10.486Z,988.27
2023-03-31T08:15:09.453Z,988.24
2023-03-31T08:16:10.718Z,988.27
2023-03-31T08:17:09.408Z,988.22
2023-03-31T08:18:09.473Z,988.27
2023-03-31T08:19:09.435Z,988.17
2023-03-31T08:20:10.673Z,988.19
2023-03-31T08:21:10.356Z,988.07
2023-03-31T08:22:10.377Z,988.05
2023-03-31T08:23:09.412Z,988.06
2023-03-31T08:24:10.334Z,988.05
2023-03-31T08:25:09.373Z,988.03
2023-03-31T08:26:09.496Z,987.97
2023-03-31T08:27:12.262Z,987.99
2023-03-31T08:28:09.303Z,987.94
2023-03-31T08:29:09.294Z,987.87
2023-03-31T08:30:09.303Z,987.92
2023-03-31T08:31:09.288Z,987.98
2023-03-31T08:32:10.283Z,987.88
2023-03-31T08:33:09.337Z,987.95
2023-03-31T08:34:10.274Z,987.93
2023-03-31T08:35:09.199Z,987.91
2023-03-31T08:36:09.553Z,987.82
2023-03-31T08:37:09.201Z,987.91
2023-03-31T08:38:09.192Z,987.88
2023-03-31T08:39:09.177Z,987.83
2023-03-31T08:40:09.166Z,987.83
2023-03-31T08:41:10.141Z,987.83
2023-03-31T08:42:11.752Z,987.76
2023-03-31T08:43:10.148Z,987.83
2023-03-31T08:44:09.089Z,987.78
2023-03-31T08:45:09.074Z,987.81
2023-03-31T08:46:10.505Z,987.80
2023-03-31T08:47:09.061Z,987.80
2023-03-31T08:48:09.159Z,987.81
2023-03-31T08:49:10.043Z,987.79
2023-03-31T08:50:09.113Z,987.81
2023-03-31T08:51:10.066Z,987.83
2023-03-31T08:52:09.033Z,987.75
2023-03-31T08:53:09.048Z,987.82
2023-03-31T08:54:10.494Z,987.80
2023-03-31T08:55:08.984Z,987.79
2023-03-31T08:56:08.954Z,987.81
2023-03-31T08:57:08.991Z,987.76
2023-03-31T08:58:08.969Z,987.74
2023-03-31T08:59:08.947Z,987.72
2023-03-31T09:00:08.973Z,987.73
2023-03-31T09:01:09.274Z,987.69
2023-03-31T09:02:09.024Z,987.66
2023-03-31T09:03:08.958Z,987.57
2023-03-31T09:04:11.031Z,987.59
2023-03-31T09:05:08.900Z,987.60
2023-03-31T09:06:09.017Z,987.58
2023-03-31T09:07:08.882Z,987.51
2023-03-31T09:08:08.889Z,987.54
2023-03-31T09:09:08.851Z,987.53
2023-03-31T09:10:08.898Z,987.52
2023-03-31T09:11:08.821Z,987.44
2023-03-31T09:12:08.823Z,987.48
2023-03-31T09:13:08.819Z,987.43
2023-03-31T09:14:08.835Z,987.43
2023-03-31T09:15:08.832Z,987.44
2023-03-31T09:16:09.018Z,987.42
2023-03-31T09:17:08.877Z,987.36
2023-03-31T09:18:08.769Z,987.36
2023-03-31T09:19:08.723Z,987.37
2023-03-31T09:20:08.721Z,987.33
2023-03-31T09:21:09.719Z,987.37
2023-03-31T09:22:08.726Z,987.37
2023-03-31T09:23:08.717Z,987.35
2023-03-31T09:24:08.710Z,987.35
2023-03-31T09:25:08.713Z,987.37
2023-03-31T09:26:09.423Z,987.34
2023-03-31T09:27:08.640Z,987.32
2023-03-31T09:28:08.635Z,987.34
2023-03-31T09:29:08.663Z,987.30
2023-03-31T09:30:08.651Z,987.30
2023-03-31T09:31:08.652Z,987.17
2023-03-31T09:32:08.605Z,987.22
2023-03-31T09:33:08.626Z,987.22
2023-03-31T09:34:08.559Z,987.22
2023-03-31T09:35:08.636Z,987.10
2023-03-31T09:36:09.886Z,987.08
2023-03-31T09:37:08.535Z,987.08
2023-03-31T09:38:08.520Z,987.03
2023-03-31T09:39:08.543Z,987.07
2023-03-31T09:40:08.506Z,987.05
2023-03-31T09:41:08.485Z,987.08
2023-03-31T09:42:08.496Z,987.08
2023-03-31T09:43:08.509Z,987.07
2023-03-31T09:44:08.453Z,987.08
2023-03-31T09:45:08.428Z,987.02
2023-03-31T09:46:10.195Z,987.01
2023-03-31T09:47:11.100Z,987.02
2023-03-31T09:48:08.409Z,986.99
2023-03-31T09:49:08.401Z,986.97
2023-03-31T09:50:08.405Z,986.88
2023-03-31T09:51:09.406Z,986.85
2023-03-31T09:52:08.399Z,986.84
2023-03-31T09:53:08.403Z,986.80
2023-03-31T09:54:08.387Z,986.79
2023-03-31T09:55:08.326Z,986.72
2023-03-31T09:56:08.794Z,986.76
2023-03-31T09:57:08.357Z,986.73
2023-03-31T09:58:08.433Z,986.78
2023-03-31T09:59:09.292Z,986.73
2023-03-31T10:00:15.938Z,986.75
2023-03-31T10:01:08.431Z,986.79
2023-03-31T10:02:08.345Z,986.74
2023-03-31T10:03:08.488Z,986.70
2023-03-31T10:04:08.267Z,986.69
2023-03-31T10:05:08.249Z,986.71
2023-03-31T10:06:08.217Z,986.73
2023-03-31T10:07:08.251Z,986.68
2023-03-31T10:08:08.787Z,986.64
2023-03-31T10:09:08.237Z,986.61
2023-03-31T10:10:08.223Z,986.68
2023-03-31T10:11:09.509Z,986.60
2023-03-31T10:12:08.240Z,986.58
2023-03-31T10:13:08.155Z,986.59
2023-03-31T10:14:08.139Z,986.63
2023-03-31T10:15:09.150Z,986.56
2023-03-31T10:16:08.168Z,986.55
2023-03-31T10:17:09.147Z,986.56
2023-03-31T10:18:08.167Z,986.52
2023-03-31T10:19:08.109Z,986.46
2023-03-31T10:20:08.057Z,986.47
2023-03-31T10:21:08.262Z,986.46
2023-03-31T10:22:08.080Z,986.52
2023-03-31T10:23:08.728Z,986.51
2023-03-31T10:24:08.024Z,986.56
2023-03-31T10:25:08.050Z,986.47
2023-03-31T10:26:07.984Z,986.50
2023-03-31T10:27:08.013Z,986.48
2023-03-31T10:28:08.970Z,986.44
2023-03-31T10:29:08.020Z,986.46
2023-03-31T10:30:07.966Z,986.47
2023-03-31T10:31:09.147Z,986.44
2023-03-31T10:32:07.994Z,986.42
2023-03-31T10:33:19.192Z,986.39
2023-03-31T10:34:08.952Z,986.42
2023-03-31T10:35:08.908Z,986.38
2023-03-31T10:36:07.979Z,986.36
2023-03-31T10:37:07.870Z,986.34
2023-03-31T10:38:08.881Z,986.33
2023-03-31T10:39:07.901Z,986.27
2023-03-31T10:40:08.862Z,986.22
2023-03-31T10:41:08.135Z,986.22
2023-03-31T10:42:07.852Z,986.17
2023-03-31T10:43:07.850Z,986.21
2023-03-31T10:44:07.789Z,986.10
2023-03-31T10:45:07.802Z,986.07
2023-03-31T10:46:07.772Z,986.09
2023-03-31T10:47:07.946Z,986.16
2023-03-31T10:48:07.823Z,986.09
2023-03-31T10:49:07.730Z,986.03
2023-03-31T10:50:07.735Z,986.08
2023-03-31T10:51:09.099Z,986.01
2023-03-31T10:52:07.726Z,985.93
2023-03-31T10:53:07.745Z,986.00
2023-03-31T10:54:07.732Z,985.97
2023-03-31T10:55:08.721Z,985.97
2023-03-31T10:56:07.725Z,985.95
2023-03-31T10:57:08.727Z,985.91
2023-03-31T10:58:07.640Z,985.92
2023-03-31T10:59:07.632Z,985.89
2023-03-31T11:00:07.640Z,985.92
2023-03-31T11:01:07.796Z,985.88
2023-03-31T11:02:08.778Z,985.86
2023-03-31T11:03:07.695Z,985.87
2023-03-31T11:04:07.767Z,985.83
2023-03-31T11:05:07.589Z,985.83
2023-03-31T11:06:07.575Z,985.86
2023-03-31T11:07:08.600Z,985.79
2023-03-31T11:08:07.533Z,985.80
2023-03-31T11:09:07.575Z,985.78
2023-03-31T11:10:07.522Z,985.84
2023-03-31T11:11:07.821Z,985.77
2023-03-31T11:12:07.471Z,985.81
2023-03-31T11:13:07.544Z,985.81
2023-03-31T11:14:07.490Z,985.78
2023-03-31T11:15:07.456Z,985.85
2023-03-31T11:16:08.553Z,985.81
2023-03-31T11:17:07.520Z,985.78
2023-03-31T11:18:07.479Z,985.76
2023-03-31T11:19:07.427Z,985.69
2023-03-31T11:20:07.443Z,985.69
2023-03-31T11:21:07.572Z,985.65
2023-03-31T11:22:07.426Z,985.62
2023-03-31T11:23:08.363Z,985.64
2023-03-31T11:24:08.363Z,985.64
2023-03-31T11:25:07.419Z,985.57
2023-03-31T11:26:07.371Z,985.58
2023-03-31T11:27:07.332Z,985.59
2023-03-31T11:28:07.409Z,985.60
2023-03-31T11:29:07.379Z,985.60
2023-03-31T11:30:07.308Z,985.60
2023-03-31T11:31:07.582Z,985.57
2023-03-31T11:32:08.369Z,985.62
2023-03-31T11:33:08.366Z,985.56
2023-03-31T11:34:07.245Z,985.59
2023-03-31T11:35:07.310Z,985.57
2023-03-31T11:36:07.261Z,985.52
2023-03-31T11:37:07.248Z,985.54
2023-03-31T11:38:07.229Z,985.51
2023-03-31T11:39:07.212Z,985.53
2023-03-31T11:40:07.181Z,985.53
2023-03-31T11:41:07.337Z,985.53
2023-03-31T11:42:07.158Z,985.48
2023-03-31T11:43:07.172Z,985.49
2023-03-31T11:44:07.163Z,985.45
2023-03-31T11:45:08.162Z,985.49
2023-03-31T11:46:07.326Z,985.44
2023-03-31T11:47:07.127Z,985.46
2023-03-31T11:48:07.967Z,985.49
2023-03-31T11:49:07.101Z,985.45
2023-03-31T11:50:08.095Z,985.44
2023-03-31T11:51:08.106Z,985.41
2023-03-31T11:52:07.067Z,985.39
2023-03-31T11:53:07.045Z,985.39
2023-03-31T11:54:07.031Z,985.39
2023-03-31T11:55:07.024Z,985.41
2023-03-31T11:56:07.224Z,985.45
2023-03-31T11:57:08.049Z,985.43
2023-03-31T11:58:06.987Z,985.40
2023-03-31T11:59:06.978Z,985.40
2023-03-31T12:00:06.964Z,985.41
2023-03-31T12:01:06.999Z,985.41
2023-03-31T12:02:06.970Z,985.37
2023-03-31T12:03:07.078Z,985.33
2023-03-31T12:04:07.086Z,985.36
2023-03-31T12:05:07.924Z,985.33
2023-03-31T12:06:07.164Z,985.33
2023-03-31T12:07:07.892Z,985.35
2023-03-31T12:08:07.872Z,985.26
2023-03-31T12:09:06.882Z,985.24
2023-03-31T12:10:06.889Z,985.16
2023-03-31T12:11:06.857Z,985.12
2023-03-31T12:12:06.841Z,985.09
2023-03-31T12:13:06.840Z,985.09
2023-03-31T12:14:06.821Z,985.10
2023-03-31T12:15:06.834Z,985.12
2023-03-31T12:16:07.081Z,985.08
2023-03-31T12:17:06.899Z,985.04
2023-03-31T12:18:06.798Z,985.06
2023-03-31T12:19:06.779Z,985.08
2023-03-31T12:20:07.767Z,985.00
2023-03-31T12:21:06.747Z,985.00
2023-03-31T12:22:06.764Z,984.93
2023-03-31T12:23:06.721Z,984.97
2023-03-31T12:24:08.534Z,984.93
2023-03-31T12:25:06.721Z,984.91
2023-03-31T12:26:07.999Z,984.91
2023-03-31T12:27:06.673Z,984.85
2023-03-31T12:28:07.667Z,984.87